sensor_id;sensor_type;location;lat;lon;timestamp;P1;durP1;ratioP1;P2;durP2;ratioP2
17422;SDS011;8829;47.932;7.810;2022-12-07T00:00:52;15.37;;;10.03;;
17422;SDS011;8829;47.932;7.810;2022-12-07T00:03:18;13.53;;;9.73;;
17422;SDS011;8829;47.932;7.810;2022-12-07T00:05:46;15.03;;;10.83;;
17422;SDS011;8829;47.932;7.810;2022-12-07T00:08:13;17.90;;;9.97;;
17422;SDS011;8829;47.932;7.810;2022-12-07T00:10:40;18.53;;;10.17;;
17422;SDS011;8829;47.932;7.810;2022-12-07T00:13:06;14.03;;;10.73;;
17422;SDS011;8829;47.932;7.810;2022-12-07T00:15:34;13.60;;;11.27;;
17422;SDS011;8829;47.932;7.810;2022-12-07T00:18:01;14.37;;;10.83;;
17422;SDS011;8829;47.932;7.810;2022-12-07T00:20:28;14.63;;;9.80;;
17422;SDS011;8829;47.932;7.810;2022-12-07T00:22:58;15.07;;;11.00;;
17422;SDS011;8829;47.932;7.810;2022-12-07T00:25:25;16.10;;;9.83;;
17422;SDS011;8829;47.932;7.810;2022-12-07T00:27:52;15.07;;;10.90;;
17422;SDS011;8829;47.932;7.810;2022-12-07T00:30:20;11.07;;;8.87;;
17422;SDS011;8829;47.932;7.810;2022-12-07T00:32:48;14.37;;;10.63;;
17422;SDS011;8829;47.932;7.810;2022-12-07T00:35:15;15.80;;;10.53;;
17422;SDS011;8829;47.932;7.810;2022-12-07T00:37:43;12.83;;;10.37;;
17422;SDS011;8829;47.932;7.810;2022-12-07T00:40:10;15.87;;;10.40;;
17422;SDS011;8829;47.932;7.810;2022-12-07T00:42:37;12.90;;;10.30;;
17422;SDS011;8829;47.932;7.810;2022-12-07T00:45:04;14.37;;;9.90;;
17422;SDS011;8829;47.932;7.810;2022-12-07T00:47:32;13.97;;;10.80;;
17422;SDS011;8829;47.932;7.810;2022-12-07T00:50:00;14.20;;;10.70;;
17422;SDS011;8829;47.932;7.810;2022-12-07T00:52:27;16.13;;;11.17;;
17422;SDS011;8829;47.932;7.810;2022-12-07T00:54:53;14.23;;;11.00;;
17422;SDS011;8829;47.932;7.810;2022-12-07T00:57:20;15.97;;;10.57;;
17422;SDS011;8829;47.932;7.810;2022-12-07T00:59:47;15.07;;;11.37;;
17422;SDS011;8829;47.932;7.810;2022-12-07T01:02:14;15.47;;;11.73;;
17422;SDS011;8829;47.932;7.810;2022-12-07T01:04:41;15.17;;;11.27;;
17422;SDS011;8829;47.932;7.810;2022-12-07T01:07:09;16.80;;;11.67;;
17422;SDS011;8829;47.932;7.810;2022-12-07T01:09:36;15.87;;;11.33;;
17422;SDS011;8829;47.932;7.810;2022-12-07T01:12:03;15.00;;;10.97;;
17422;SDS011;8829;47.932;7.810;2022-12-07T01:14:30;15.27;;;11.20;;
17422;SDS011;8829;47.932;7.810;2022-12-07T01:16:57;17.93;;;12.00;;
17422;SDS011;8829;47.932;7.810;2022-12-07T01:19:23;17.53;;;11.80;;
17422;SDS011;8829;47.932;7.810;2022-12-07T01:21:50;16.47;;;11.73;;
17422;SDS011;8829;47.932;7.810;2022-12-07T01:24:19;16.00;;;11.37;;
17422;SDS011;8829;47.932;7.810;2022-12-07T01:26:48;16.00;;;11.50;;
17422;SDS011;8829;47.932;7.810;2022-12-07T01:29:16;14.10;;;10.30;;
17422;SDS011;8829;47.932;7.810;2022-12-07T01:31:42;19.73;;;11.83;;
17422;SDS011;8829;47.932;7.810;2022-12-07T01:34:09;19.93;;;14.47;;
17422;SDS011;8829;47.932;7.810;2022-12-07T01:36:37;13.13;;;10.30;;
17422;SDS011;8829;47.932;7.810;2022-12-07T01:39:05;15.43;;;11.03;;
17422;SDS011;8829;47.932;7.810;2022-12-07T01:41:36;15.63;;;11.30;;
17422;SDS011;8829;47.932;7.810;2022-12-07T01:44:09;15.73;;;12.47;;
17422;SDS011;8829;47.932;7.810;2022-12-07T01:46:39;17.00;;;11.70;;
17422;SDS011;8829;47.932;7.810;2022-12-07T01:49:08;16.60;;;11.73;;
17422;SDS011;8829;47.932;7.810;2022-12-07T01:51:40;13.17;;;10.17;;
17422;SDS011;8829;47.932;7.810;2022-12-07T01:54:09;13.30;;;10.20;;
17422;SDS011;8829;47.932;7.810;2022-12-07T01:56:38;16.43;;;11.37;;
17422;SDS011;8829;47.932;7.810;2022-12-07T01:59:08;15.30;;;10.77;;
17422;SDS011;8829;47.932;7.810;2022-12-07T02:01:36;14.60;;;11.10;;
17422;SDS011;8829;47.932;7.810;2022-12-07T02:04:03;17.03;;;10.87;;
17422;SDS011;8829;47.932;7.810;2022-12-07T02:06:30;12.97;;;9.83;;
17422;SDS011;8829;47.932;7.810;2022-12-07T02:08:58;12.00;;;9.87;;
17422;SDS011;8829;47.932;7.810;2022-12-07T02:11:25;12.80;;;10.13;;
17422;SDS011;8829;47.932;7.810;2022-12-07T02:13:53;13.43;;;10.13;;
17422;SDS011;8829;47.932;7.810;2022-12-07T02:16:25;12.27;;;9.83;;
17422;SDS011;8829;47.932;7.810;2022-12-07T02:19:05;12.77;;;10.00;;
17422;SDS011;8829;47.932;7.810;2022-12-07T02:21:51;13.17;;;10.97;;
17422;SDS011;8829;47.932;7.810;2022-12-07T02:24:30;14.30;;;11.13;;
17422;SDS011;8829;47.932;7.810;2022-12-07T02:27:14;13.93;;;10.80;;
17422;SDS011;8829;47.932;7.810;2022-12-07T02:29:57;17.37;;;11.97;;
17422;SDS011;8829;47.932;7.810;2022-12-07T02:32:27;16.00;;;10.90;;
17422;SDS011;8829;47.932;7.810;2022-12-07T02:35:03;15.27;;;11.93;;
17422;SDS011;8829;47.932;7.810;2022-12-07T02:37:34;17.60;;;12.53;;
17422;SDS011;8829;47.932;7.810;2022-12-07T02:40:06;16.17;;;12.10;;
17422;SDS011;8829;47.932;7.810;2022-12-07T02:42:38;19.67;;;14.07;;
17422;SDS011;8829;47.932;7.810;2022-12-07T02:45:10;20.23;;;14.63;;
17422;SDS011;8829;47.932;7.810;2022-12-07T02:47:39;21.77;;;15.07;;
17422;SDS011;8829;47.932;7.810;2022-12-07T02:50:08;22.10;;;15.20;;
17422;SDS011;8829;47.932;7.810;2022-12-07T02:52:35;25.03;;;15.60;;
17422;SDS011;8829;47.932;7.810;2022-12-07T02:55:02;24.43;;;14.43;;
17422;SDS011;8829;47.932;7.810;2022-12-07T02:57:35;17.00;;;12.83;;
17422;SDS011;8829;47.932;7.810;2022-12-07T03:00:13;18.67;;;12.53;;
17422;SDS011;8829;47.932;7.810;2022-12-07T03:02:46;14.07;;;9.67;;
17422;SDS011;8829;47.932;7.810;2022-12-07T03:05:28;13.27;;;9.50;;
17422;SDS011;8829;47.932;7.810;2022-12-07T03:08:13;12.93;;;8.90;;
17422;SDS011;8829;47.932;7.810;2022-12-07T03:10:54;12.07;;;8.13;;
17422;SDS011;8829;47.932;7.810;2022-12-07T03:13:25;8.50;;;6.77;;
17422;SDS011;8829;47.932;7.810;2022-12-07T03:15:59;8.20;;;6.70;;
17422;SDS011;8829;47.932;7.810;2022-12-07T03:18:31;9.37;;;6.60;;
17422;SDS011;8829;47.932;7.810;2022-12-07T03:21:06;11.07;;;6.30;;
17422;SDS011;8829;47.932;7.810;2022-12-07T03:23:36;8.30;;;6.30;;
17422;SDS011;8829;47.932;7.810;2022-12-07T03:26:07;11.90;;;6.97;;
17422;SDS011;8829;47.932;7.810;2022-12-07T03:28:40;10.47;;;8.03;;
17422;SDS011;8829;47.932;7.810;2022-12-07T03:31:13;12.30;;;8.27;;
17422;SDS011;8829;47.932;7.810;2022-12-07T03:33:44;12.07;;;8.80;;
17422;SDS011;8829;47.932;7.810;2022-12-07T03:36:19;12.90;;;8.87;;
17422;SDS011;8829;47.932;7.810;2022-12-07T03:38:50;14.07;;;9.10;;
17422;SDS011;8829;47.932;7.810;2022-12-07T03:41:25;13.37;;;9.33;;
17422;SDS011;8829;47.932;7.810;2022-12-07T03:43:54;13.33;;;8.90;;
17422;SDS011;8829;47.932;7.810;2022-12-07T03:46:26;13.53;;;9.73;;
17422;SDS011;8829;47.932;7.810;2022-12-07T03:49:02;11.40;;;8.93;;
17422;SDS011;8829;47.932;7.810;2022-12-07T03:51:37;14.30;;;9.13;;
17422;SDS011;8829;47.932;7.810;2022-12-07T03:54:10;13.47;;;8.70;;
17422;SDS011;8829;47.932;7.810;2022-12-07T03:56:41;9.20;;;6.20;;
17422;SDS011;8829;47.932;7.810;2022-12-07T03:59:11;8.77;;;6.47;;
17422;SDS011;8829;47.932;7.810;2022-12-07T04:01:42;7.73;;;5.50;;
17422;SDS011;8829;47.932;7.810;2022-12-07T04:04:09;5.83;;;5.20;;
17422;SDS011;8829;47.932;7.810;2022-12-07T04:06:36;6.90;;;4.90;;
17422;SDS011;8829;47.932;7.810;2022-12-07T04:09:02;7.60;;;5.33;;
17422;SDS011;8829;47.932;7.810;2022-12-07T04:11:29;6.10;;;4.77;;
17422;SDS011;8829;47.932;7.810;2022-12-07T04:13:56;4.97;;;4.47;;
17422;SDS011;8829;47.932;7.810;2022-12-07T04:16:41;4.90;;;3.87;;
17422;SDS011;8829;47.932;7.810;2022-12-07T04:19:08;4.47;;;3.67;;
17422;SDS011;8829;47.932;7.810;2022-12-07T04:21:35;4.43;;;4.03;;
17422;SDS011;8829;47.932;7.810;2022-12-07T04:24:02;4.17;;;3.77;;
17422;SDS011;8829;47.932;7.810;2022-12-07T04:26:29;5.10;;;4.60;;
17422;SDS011;8829;47.932;7.810;2022-12-07T04:28:55;4.30;;;3.90;;
17422;SDS011;8829;47.932;7.810;2022-12-07T04:31:22;4.97;;;4.37;;
17422;SDS011;8829;47.932;7.810;2022-12-07T04:33:50;4.70;;;4.00;;
17422;SDS011;8829;47.932;7.810;2022-12-07T04:36:17;4.27;;;3.87;;
17422;SDS011;8829;47.932;7.810;2022-12-07T04:38:44;4.50;;;3.77;;
17422;SDS011;8829;47.932;7.810;2022-12-07T04:41:11;4.43;;;3.63;;
17422;SDS011;8829;47.932;7.810;2022-12-07T04:43:38;4.70;;;4.10;;
17422;SDS011;8829;47.932;7.810;2022-12-07T04:46:06;4.63;;;3.90;;
17422;SDS011;8829;47.932;7.810;2022-12-07T04:48:33;4.30;;;3.90;;
17422;SDS011;8829;47.932;7.810;2022-12-07T04:51:01;5.37;;;4.30;;
17422;SDS011;8829;47.932;7.810;2022-12-07T04:53:28;5.20;;;3.90;;
17422;SDS011;8829;47.932;7.810;2022-12-07T04:55:55;4.07;;;3.67;;
17422;SDS011;8829;47.932;7.810;2022-12-07T04:58:23;3.67;;;3.37;;
17422;SDS011;8829;47.932;7.810;2022-12-07T05:00:49;3.13;;;2.87;;
17422;SDS011;8829;47.932;7.810;2022-12-07T05:03:20;4.30;;;3.17;;
17422;SDS011;8829;47.932;7.810;2022-12-07T05:05:48;3.50;;;3.20;;
17422;SDS011;8829;47.932;7.810;2022-12-07T05:08:16;3.10;;;2.90;;
17422;SDS011;8829;47.932;7.810;2022-12-07T05:10:42;3.13;;;2.90;;
17422;SDS011;8829;47.932;7.810;2022-12-07T05:13:09;3.60;;;3.30;;
17422;SDS011;8829;47.932;7.810;2022-12-07T05:15:36;3.00;;;2.80;;
17422;SDS011;8829;47.932;7.810;2022-12-07T05:18:03;5.70;;;3.23;;
17422;SDS011;8829;47.932;7.810;2022-12-07T05:20:29;3.00;;;2.70;;
17422;SDS011;8829;47.932;7.810;2022-12-07T05:22:56;3.63;;;3.07;;
17422;SDS011;8829;47.932;7.810;2022-12-07T05:25:25;3.23;;;2.93;;
17422;SDS011;8829;47.932;7.810;2022-12-07T05:27:52;3.20;;;2.50;;
17422;SDS011;8829;47.932;7.810;2022-12-07T05:30:20;2.90;;;2.70;;
17422;SDS011;8829;47.932;7.810;2022-12-07T05:32:47;3.80;;;2.90;;
17422;SDS011;8829;47.932;7.810;2022-12-07T05:35:14;2.87;;;2.60;;
17422;SDS011;8829;47.932;7.810;2022-12-07T05:37:40;2.80;;;2.43;;
17422;SDS011;8829;47.932;7.810;2022-12-07T05:40:08;2.63;;;2.50;;
17422;SDS011;8829;47.932;7.810;2022-12-07T05:42:37;2.30;;;2.10;;
17422;SDS011;8829;47.932;7.810;2022-12-07T05:45:04;4.33;;;2.93;;
17422;SDS011;8829;47.932;7.810;2022-12-07T05:47:32;2.20;;;2.10;;
17422;SDS011;8829;47.932;7.810;2022-12-07T05:49:58;2.07;;;1.97;;
17422;SDS011;8829;47.932;7.810;2022-12-07T05:52:25;2.40;;;2.30;;
17422;SDS011;8829;47.932;7.810;2022-12-07T05:54:52;2.33;;;2.10;;
17422;SDS011;8829;47.932;7.810;2022-12-07T05:57:19;1.93;;;1.83;;
17422;SDS011;8829;47.932;7.810;2022-12-07T05:59:47;2.57;;;2.37;;
17422;SDS011;8829;47.932;7.810;2022-12-07T06:02:13;1.80;;;1.70;;
17422;SDS011;8829;47.932;7.810;2022-12-07T06:04:43;1.90;;;1.80;;
17422;SDS011;8829;47.932;7.810;2022-12-07T06:07:13;3.80;;;3.03;;
17422;SDS011;8829;47.932;7.810;2022-12-07T06:09:41;2.20;;;2.10;;
17422;SDS011;8829;47.932;7.810;2022-12-07T06:12:08;2.50;;;2.30;;
17422;SDS011;8829;47.932;7.810;2022-12-07T06:14:54;2.33;;;2.13;;
17422;SDS011;8829;47.932;7.810;2022-12-07T06:17:21;2.10;;;2.00;;
17422;SDS011;8829;47.932;7.810;2022-12-07T06:19:48;2.43;;;2.33;;
17422;SDS011;8829;47.932;7.810;2022-12-07T06:22:15;2.37;;;2.17;;
17422;SDS011;8829;47.932;7.810;2022-12-07T06:24:43;2.00;;;1.90;;
17422;SDS011;8829;47.932;7.810;2022-12-07T06:27:10;2.03;;;1.93;;
17422;SDS011;8829;47.932;7.810;2022-12-07T06:29:36;2.37;;;2.27;;
17422;SDS011;8829;47.932;7.810;2022-12-07T06:32:05;2.07;;;1.93;;
17422;SDS011;8829;47.932;7.810;2022-12-07T06:34:31;1.80;;;1.70;;
17422;SDS011;8829;47.932;7.810;2022-12-07T06:36:58;1.87;;;1.77;;
17422;SDS011;8829;47.932;7.810;2022-12-07T06:39:26;2.00;;;1.90;;
17422;SDS011;8829;47.932;7.810;2022-12-07T06:41:55;1.80;;;1.70;;
17422;SDS011;8829;47.932;7.810;2022-12-07T06:44:22;1.87;;;1.77;;
17422;SDS011;8829;47.932;7.810;2022-12-07T06:46:50;1.87;;;1.77;;
17422;SDS011;8829;47.932;7.810;2022-12-07T06:49:19;2.57;;;1.83;;
17422;SDS011;8829;47.932;7.810;2022-12-07T06:51:47;1.73;;;1.63;;
17422;SDS011;8829;47.932;7.810;2022-12-07T06:54:14;1.70;;;1.60;;
17422;SDS011;8829;47.932;7.810;2022-12-07T06:56:41;3.00;;;1.70;;
17422;SDS011;8829;47.932;7.810;2022-12-07T06:59:08;1.83;;;1.73;;
17422;SDS011;8829;47.932;7.810;2022-12-07T07:01:35;2.00;;;1.90;;
17422;SDS011;8829;47.932;7.810;2022-12-07T07:04:02;2.00;;;1.90;;
17422;SDS011;8829;47.932;7.810;2022-12-07T07:06:31;2.53;;;2.37;;
17422;SDS011;8829;47.932;7.810;2022-12-07T07:08:57;2.33;;;2.20;;
17422;SDS011;8829;47.932;7.810;2022-12-07T07:11:24;1.93;;;1.83;;
17422;SDS011;8829;47.932;7.810;2022-12-07T07:13:51;1.80;;;1.70;;
17422;SDS011;8829;47.932;7.810;2022-12-07T07:16:22;2.97;;;2.63;;
17422;SDS011;8829;47.932;7.810;2022-12-07T07:18:49;2.03;;;1.93;;
17422;SDS011;8829;47.932;7.810;2022-12-07T07:21:16;1.93;;;1.83;;
17422;SDS011;8829;47.932;7.810;2022-12-07T07:23:45;2.30;;;2.20;;
17422;SDS011;8829;47.932;7.810;2022-12-07T07:26:11;2.20;;;2.10;;
17422;SDS011;8829;47.932;7.810;2022-12-07T07:28:38;2.70;;;2.50;;
17422;SDS011;8829;47.932;7.810;2022-12-07T07:31:05;1.80;;;1.70;;
17422;SDS011;8829;47.932;7.810;2022-12-07T07:33:32;4.13;;;2.30;;
17422;SDS011;8829;47.932;7.810;2022-12-07T07:35:58;3.30;;;3.00;;
17422;SDS011;8829;47.932;7.810;2022-12-07T07:38:25;4.00;;;3.60;;
17422;SDS011;8829;47.932;7.810;2022-12-07T07:40:53;5.80;;;4.67;;
17422;SDS011;8829;47.932;7.810;2022-12-07T07:43:20;7.23;;;6.27;;
17422;SDS011;8829;47.932;7.810;2022-12-07T07:45:47;7.30;;;5.73;;
17422;SDS011;8829;47.932;7.810;2022-12-07T07:48:13;6.50;;;5.70;;
17422;SDS011;8829;47.932;7.810;2022-12-07T07:50:40;10.20;;;6.57;;
17422;SDS011;8829;47.932;7.810;2022-12-07T07:53:07;11.33;;;9.00;;
17422;SDS011;8829;47.932;7.810;2022-12-07T07:55:34;12.57;;;9.03;;
17422;SDS011;8829;47.932;7.810;2022-12-07T07:58:02;13.57;;;8.90;;
17422;SDS011;8829;47.932;7.810;2022-12-07T08:00:28;11.37;;;7.70;;
17422;SDS011;8829;47.932;7.810;2022-12-07T08:02:55;8.27;;;6.37;;
17422;SDS011;8829;47.932;7.810;2022-12-07T08:05:22;8.87;;;6.10;;
17422;SDS011;8829;47.932;7.810;2022-12-07T08:07:49;7.30;;;6.07;;
17422;SDS011;8829;47.932;7.810;2022-12-07T08:10:15;7.63;;;6.57;;
17422;SDS011;8829;47.932;7.810;2022-12-07T08:12:42;8.43;;;6.13;;
17422;SDS011;8829;47.932;7.810;2022-12-07T08:15:29;8.77;;;6.10;;
17422;SDS011;8829;47.932;7.810;2022-12-07T08:17:58;6.27;;;5.17;;
17422;SDS011;8829;47.932;7.810;2022-12-07T08:20:25;6.17;;;5.33;;
17422;SDS011;8829;47.932;7.810;2022-12-07T08:22:52;5.90;;;5.30;;
17422;SDS011;8829;47.932;7.810;2022-12-07T08:25:18;8.73;;;7.00;;
17422;SDS011;8829;47.932;7.810;2022-12-07T08:27:45;7.80;;;5.93;;
17422;SDS011;8829;47.932;7.810;2022-12-07T08:30:12;7.60;;;5.57;;
17422;SDS011;8829;47.932;7.810;2022-12-07T08:32:40;7.00;;;5.37;;
17422;SDS011;8829;47.932;7.810;2022-12-07T08:35:07;12.47;;;8.50;;
17422;SDS011;8829;47.932;7.810;2022-12-07T08:37:35;28.60;;;18.60;;
17422;SDS011;8829;47.932;7.810;2022-12-07T08:40:02;5.77;;;5.13;;
17422;SDS011;8829;47.932;7.810;2022-12-07T08:42:29;5.53;;;4.30;;
17422;SDS011;8829;47.932;7.810;2022-12-07T08:45:03;6.28;;;5.68;;
17422;SDS011;8829;47.932;7.810;2022-12-07T08:47:31;4.63;;;4.20;;
17422;SDS011;8829;47.932;7.810;2022-12-07T08:50:00;6.27;;;4.10;;
17422;SDS011;8829;47.932;7.810;2022-12-07T08:52:29;4.77;;;4.37;;
17422;SDS011;8829;47.932;7.810;2022-12-07T08:54:56;4.00;;;3.57;;
17422;SDS011;8829;47.932;7.810;2022-12-07T08:57:23;4.47;;;4.07;;
17422;SDS011;8829;47.932;7.810;2022-12-07T08:59:50;4.97;;;4.07;;
17422;SDS011;8829;47.932;7.810;2022-12-07T09:02:17;6.13;;;3.77;;
17422;SDS011;8829;47.932;7.810;2022-12-07T09:04:44;3.77;;;3.40;;
17422;SDS011;8829;47.932;7.810;2022-12-07T09:07:13;4.00;;;3.70;;
17422;SDS011;8829;47.932;7.810;2022-12-07T09:09:39;3.73;;;3.43;;
17422;SDS011;8829;47.932;7.810;2022-12-07T09:12:06;3.77;;;3.47;;
17422;SDS011;8829;47.932;7.810;2022-12-07T09:14:33;3.87;;;3.47;;
17422;SDS011;8829;47.932;7.810;2022-12-07T09:17:04;3.80;;;3.40;;
17422;SDS011;8829;47.932;7.810;2022-12-07T09:19:32;3.63;;;3.33;;
17422;SDS011;8829;47.932;7.810;2022-12-07T09:22:00;3.80;;;3.00;;
17422;SDS011;8829;47.932;7.810;2022-12-07T09:24:28;2.97;;;2.77;;
17422;SDS011;8829;47.932;7.810;2022-12-07T09:26:55;3.50;;;3.20;;
17422;SDS011;8829;47.932;7.810;2022-12-07T09:29:22;2.70;;;2.50;;
17422;SDS011;8829;47.932;7.810;2022-12-07T09:31:48;3.20;;;3.00;;
17422;SDS011;8829;47.932;7.810;2022-12-07T09:34:16;2.90;;;2.70;;
17422;SDS011;8829;47.932;7.810;2022-12-07T09:36:43;3.03;;;2.73;;
17422;SDS011;8829;47.932;7.810;2022-12-07T09:39:10;2.73;;;2.53;;
17422;SDS011;8829;47.932;7.810;2022-12-07T09:41:38;3.13;;;2.87;;
17422;SDS011;8829;47.932;7.810;2022-12-07T09:44:09;2.80;;;2.60;;
17422;SDS011;8829;47.932;7.810;2022-12-07T09:46:39;2.30;;;2.20;;
17422;SDS011;8829;47.932;7.810;2022-12-07T09:49:09;2.80;;;2.60;;
17422;SDS011;8829;47.932;7.810;2022-12-07T09:51:40;2.70;;;2.50;;
17422;SDS011;8829;47.932;7.810;2022-12-07T09:54:07;2.80;;;2.60;;
17422;SDS011;8829;47.932;7.810;2022-12-07T09:56:39;12.57;;;7.93;;
17422;SDS011;8829;47.932;7.810;2022-12-07T09:59:09;2.57;;;2.37;;
17422;SDS011;8829;47.932;7.810;2022-12-07T10:01:42;2.87;;;2.67;;
17422;SDS011;8829;47.932;7.810;2022-12-07T10:04:09;3.43;;;2.80;;
17422;SDS011;8829;47.932;7.810;2022-12-07T10:06:40;2.60;;;2.40;;
17422;SDS011;8829;47.932;7.810;2022-12-07T10:09:09;2.80;;;2.57;;
17422;SDS011;8829;47.932;7.810;2022-12-07T10:14:27;2.60;;;2.40;;
17422;SDS011;8829;47.932;7.810;2022-12-07T10:16:55;2.63;;;2.43;;
17422;SDS011;8829;47.932;7.810;2022-12-07T10:19:23;3.30;;;3.00;;
17422;SDS011;8829;47.932;7.810;2022-12-07T10:22:01;3.80;;;3.50;;
17422;SDS011;8829;47.932;7.810;2022-12-07T10:24:31;3.50;;;2.80;;
17422;SDS011;8829;47.932;7.810;2022-12-07T10:26:59;4.07;;;3.53;;
17422;SDS011;8829;47.932;7.810;2022-12-07T10:29:28;4.83;;;4.43;;
17422;SDS011;8829;47.932;7.810;2022-12-07T10:31:57;3.00;;;2.80;;
17422;SDS011;8829;47.932;7.810;2022-12-07T10:34:27;2.80;;;2.60;;
17422;SDS011;8829;47.932;7.810;2022-12-07T10:37:06;3.40;;;3.10;;
17422;SDS011;8829;47.932;7.810;2022-12-07T10:39:41;3.07;;;2.87;;
17422;SDS011;8829;47.932;7.810;2022-12-07T10:42:17;2.83;;;2.63;;
17422;SDS011;8829;47.932;7.810;2022-12-07T10:44:45;3.03;;;2.80;;
17422;SDS011;8829;47.932;7.810;2022-12-07T10:47:16;3.00;;;2.80;;
17422;SDS011;8829;47.932;7.810;2022-12-07T10:50:02;4.87;;;3.07;;
17422;SDS011;8829;47.932;7.810;2022-12-07T10:52:55;3.23;;;3.00;;
17422;SDS011;8829;47.932;7.810;2022-12-07T10:55:29;3.53;;;3.23;;
17422;SDS011;8829;47.932;7.810;2022-12-07T10:58:14;2.73;;;2.53;;
17422;SDS011;8829;47.932;7.810;2022-12-07T11:01:00;8.43;;;6.50;;
17422;SDS011;8829;47.932;7.810;2022-12-07T11:03:36;3.20;;;3.00;;
17422;SDS011;8829;47.932;7.810;2022-12-07T11:06:18;3.37;;;3.10;;
17422;SDS011;8829;47.932;7.810;2022-12-07T11:08:57;2.47;;;2.27;;
17422;SDS011;8829;47.932;7.810;2022-12-07T11:11:33;3.30;;;3.10;;
17422;SDS011;8829;47.932;7.810;2022-12-07T11:14:09;3.20;;;2.90;;
17422;SDS011;8829;47.932;7.810;2022-12-07T11:16:49;2.83;;;2.53;;
17422;SDS011;8829;47.932;7.810;2022-12-07T11:19:24;2.93;;;2.50;;
17422;SDS011;8829;47.932;7.810;2022-12-07T11:22:16;2.10;;;2.00;;
17422;SDS011;8829;47.932;7.810;2022-12-07T11:24:48;2.23;;;1.90;;
17422;SDS011;8829;47.932;7.810;2022-12-07T11:27:22;2.10;;;2.00;;
17422;SDS011;8829;47.932;7.810;2022-12-07T11:30:00;1.80;;;1.70;;
17422;SDS011;8829;47.932;7.810;2022-12-07T11:32:41;2.07;;;1.50;;
17422;SDS011;8829;47.932;7.810;2022-12-07T11:35:17;1.50;;;1.40;;
17422;SDS011;8829;47.932;7.810;2022-12-07T11:37:51;1.93;;;1.60;;
17422;SDS011;8829;47.932;7.810;2022-12-07T11:40:24;1.53;;;1.50;;
17422;SDS011;8829;47.932;7.810;2022-12-07T11:42:57;1.70;;;1.60;;
17422;SDS011;8829;47.932;7.810;2022-12-07T11:45:28;3.03;;;2.80;;
17422;SDS011;8829;47.932;7.810;2022-12-07T11:47:59;2.10;;;2.00;;
17422;SDS011;8829;47.932;7.810;2022-12-07T11:50:32;2.23;;;2.13;;
17422;SDS011;8829;47.932;7.810;2022-12-07T11:53:02;1.90;;;1.80;;
17422;SDS011;8829;47.932;7.810;2022-12-07T11:55:38;2.03;;;1.93;;
17422;SDS011;8829;47.932;7.810;2022-12-07T11:58:13;2.50;;;2.30;;
17422;SDS011;8829;47.932;7.810;2022-12-07T12:00:50;1.97;;;1.87;;
17422;SDS011;8829;47.932;7.810;2022-12-07T12:03:23;2.10;;;2.00;;
17422;SDS011;8829;47.932;7.810;2022-12-07T12:05:56;2.30;;;2.17;;
17422;SDS011;8829;47.932;7.810;2022-12-07T12:08:26;2.20;;;2.07;;
17422;SDS011;8829;47.932;7.810;2022-12-07T12:11:00;1.97;;;1.87;;
17422;SDS011;8829;47.932;7.810;2022-12-07T12:13:43;2.20;;;2.10;;
17422;SDS011;8829;47.932;7.810;2022-12-07T12:16:28;2.07;;;1.97;;
17422;SDS011;8829;47.932;7.810;2022-12-07T12:19:16;3.40;;;3.10;;
17422;SDS011;8829;47.932;7.810;2022-12-07T12:21:53;2.80;;;2.60;;
17422;SDS011;8829;47.932;7.810;2022-12-07T12:24:25;2.67;;;2.47;;
17422;SDS011;8829;47.932;7.810;2022-12-07T12:26:57;3.37;;;3.03;;
17422;SDS011;8829;47.932;7.810;2022-12-07T12:29:28;4.47;;;3.27;;
17422;SDS011;8829;47.932;7.810;2022-12-07T12:32:10;3.07;;;2.43;;
17422;SDS011;8829;47.932;7.810;2022-12-07T12:34:41;2.93;;;2.73;;
17422;SDS011;8829;47.932;7.810;2022-12-07T12:37:38;2.40;;;2.20;;
17422;SDS011;8829;47.932;7.810;2022-12-07T12:55:16;4.40;;;4.00;;
17422;SDS011;8829;47.932;7.810;2022-12-07T12:57:46;4.50;;;4.10;;
17422;SDS011;8829;47.932;7.810;2022-12-07T13:00:34;4.03;;;3.63;;
17422;SDS011;8829;47.932;7.810;2022-12-07T13:03:00;4.43;;;3.67;;
17422;SDS011;8829;47.932;7.810;2022-12-07T13:05:28;5.27;;;3.90;;
17422;SDS011;8829;47.932;7.810;2022-12-07T13:07:56;5.47;;;4.97;;
17422;SDS011;8829;47.932;7.810;2022-12-07T13:10:31;3.67;;;3.37;;
17422;SDS011;8829;47.932;7.810;2022-12-07T13:13:28;3.67;;;3.37;;
17422;SDS011;8829;47.932;7.810;2022-12-07T13:25:29;5.07;;;3.00;;
17422;SDS011;8829;47.932;7.810;2022-12-07T13:28:01;3.23;;;3.03;;
17422;SDS011;8829;47.932;7.810;2022-12-07T13:30:34;2.40;;;2.20;;
17422;SDS011;8829;47.932;7.810;2022-12-07T13:33:10;2.53;;;2.40;;
17422;SDS011;8829;47.932;7.810;2022-12-07T13:35:39;3.73;;;3.30;;
17422;SDS011;8829;47.932;7.810;2022-12-07T13:38:14;3.70;;;3.40;;
17422;SDS011;8829;47.932;7.810;2022-12-07T13:41:11;4.20;;;3.43;;
17422;SDS011;8829;47.932;7.810;2022-12-07T13:43:44;4.20;;;3.80;;
17422;SDS011;8829;47.932;7.810;2022-12-07T13:46:12;5.57;;;4.63;;
17422;SDS011;8829;47.932;7.810;2022-12-07T13:48:43;3.57;;;3.20;;
17422;SDS011;8829;47.932;7.810;2022-12-07T13:51:16;2.93;;;2.73;;
17422;SDS011;8829;47.932;7.810;2022-12-07T13:53:48;2.70;;;2.50;;
17422;SDS011;8829;47.932;7.810;2022-12-07T13:56:17;2.43;;;2.23;;
17422;SDS011;8829;47.932;7.810;2022-12-07T13:58:47;3.93;;;2.10;;
17422;SDS011;8829;47.932;7.810;2022-12-07T14:01:15;2.73;;;2.53;;
17422;SDS011;8829;47.932;7.810;2022-12-07T14:03:41;2.60;;;2.40;;
17422;SDS011;8829;47.932;7.810;2022-12-07T14:06:19;3.10;;;2.90;;
17422;SDS011;8829;47.932;7.810;2022-12-07T14:09:05;3.03;;;2.83;;
17422;SDS011;8829;47.932;7.810;2022-12-07T14:11:34;3.77;;;3.30;;
17422;SDS011;8829;47.932;7.810;2022-12-07T14:14:02;2.90;;;2.70;;
17422;SDS011;8829;47.932;7.810;2022-12-07T14:16:31;3.17;;;2.97;;
17422;SDS011;8829;47.932;7.810;2022-12-07T14:19:00;5.47;;;3.30;;
17422;SDS011;8829;47.932;7.810;2022-12-07T14:21:29;3.60;;;3.30;;
17422;SDS011;8829;47.932;7.810;2022-12-07T14:24:11;5.00;;;4.60;;
17422;SDS011;8829;47.932;7.810;2022-12-07T14:26:43;3.30;;;3.00;;
17422;SDS011;8829;47.932;7.810;2022-12-07T14:32:18;3.50;;;3.20;;
17422;SDS011;8829;47.932;7.810;2022-12-07T14:34:57;3.97;;;3.50;;
17422;SDS011;8829;47.932;7.810;2022-12-07T14:37:29;4.47;;;3.27;;
17422;SDS011;8829;47.932;7.810;2022-12-07T14:39:56;4.77;;;4.30;;
17422;SDS011;8829;47.932;7.810;2022-12-07T14:42:26;3.90;;;3.30;;
17422;SDS011;8829;47.932;7.810;2022-12-07T14:44:54;3.53;;;3.23;;
17422;SDS011;8829;47.932;7.810;2022-12-07T14:47:21;5.63;;;4.50;;
17422;SDS011;8829;47.932;7.810;2022-12-07T14:49:48;4.20;;;3.80;;
17422;SDS011;8829;47.932;7.810;2022-12-07T14:52:16;5.53;;;3.93;;
17422;SDS011;8829;47.932;7.810;2022-12-07T14:54:45;3.93;;;3.33;;
17422;SDS011;8829;47.932;7.810;2022-12-07T14:57:11;4.53;;;3.63;;
17422;SDS011;8829;47.932;7.810;2022-12-07T14:59:39;4.97;;;4.40;;
17422;SDS011;8829;47.932;7.810;2022-12-07T15:02:08;4.53;;;4.13;;
17422;SDS011;8829;47.932;7.810;2022-12-07T15:04:36;4.50;;;4.03;;
17422;SDS011;8829;47.932;7.810;2022-12-07T15:07:03;5.17;;;4.40;;
17422;SDS011;8829;47.932;7.810;2022-12-07T15:09:32;4.63;;;3.70;;
17422;SDS011;8829;47.932;7.810;2022-12-07T15:11:58;4.37;;;3.73;;
17422;SDS011;8829;47.932;7.810;2022-12-07T15:14:25;4.23;;;3.93;;
17422;SDS011;8829;47.932;7.810;2022-12-07T15:16:54;4.30;;;3.90;;
17422;SDS011;8829;47.932;7.810;2022-12-07T15:19:21;6.03;;;5.07;;
17422;SDS011;8829;47.932;7.810;2022-12-07T15:21:51;9.57;;;6.07;;
17422;SDS011;8829;47.932;7.810;2022-12-07T15:24:18;7.17;;;5.60;;
17422;SDS011;8829;47.932;7.810;2022-12-07T15:26:46;4.80;;;4.13;;
17422;SDS011;8829;47.932;7.810;2022-12-07T15:29:13;6.23;;;4.63;;
17422;SDS011;8829;47.932;7.810;2022-12-07T15:31:41;3.93;;;3.53;;
17422;SDS011;8829;47.932;7.810;2022-12-07T15:34:09;4.43;;;4.03;;
17422;SDS011;8829;47.932;7.810;2022-12-07T15:36:36;3.70;;;3.37;;
17422;SDS011;8829;47.932;7.810;2022-12-07T15:39:03;3.43;;;3.13;;
17422;SDS011;8829;47.932;7.810;2022-12-07T15:41:30;2.60;;;2.40;;
17422;SDS011;8829;47.932;7.810;2022-12-07T15:43:58;3.47;;;2.90;;